sensor_id;sensor_type;location;lat;lon;timestamp;P1;durP1;ratioP1;P2;durP2;ratioP2
22904;SDS011;11619;50.140;8.518;2023-03-31T00:02:00;8.13;;;2.25;;
22904;SDS011;11619;50.140;8.518;2023-03-31T00:04:28;5.45;;;1.98;;
22904;SDS011;11619;50.140;8.518;2023-03-31T00:06:57;4.03;;;1.90;;
22904;SDS011;11619;50.140;8.518;2023-03-31T00:09:23;8.57;;;2.08;;
22904;SDS011;11619;50.140;8.518;2023-03-31T00:11:50;4.70;;;1.80;;
22904;SDS011;11619;50.140;8.518;2023-03-31T00:14:17;5.43;;;1.95;;
22904;SDS011;11619;50.140;8.518;2023-03-31T00:16:45;4.35;;;1.70;;
22904;SDS011;11619;50.140;8.518;2023-03-31T00:19:12;4.47;;;1.80;;
22904;SDS011;11619;50.140;8.518;2023-03-31T00:21:45;5.75;;;1.83;;
22904;SDS011;11619;50.140;8.518;2023-03-31T00:24:13;11.48;;;2.10;;
22904;SDS011;11619;50.140;8.518;2023-03-31T00:26:40;10.27;;;2.30;;
22904;SDS011;11619;50.140;8.518;2023-03-31T00:29:07;5.85;;;2.05;;
22904;SDS011;11619;50.140;8.518;2023-03-31T00:31:34;8.98;;;2.65;;
22904;SDS011;11619;50.140;8.518;2023-03-31T00:34:01;8.85;;;2.60;;
22904;SDS011;11619;50.140;8.518;2023-03-31T00:36:27;6.53;;;2.33;;
22904;SDS011;11619;50.140;8.518;2023-03-31T00:38:54;8.73;;;2.55;;
22904;SDS011;11619;50.140;8.518;2023-03-31T00:41:25;7.50;;;2.55;;
22904;SDS011;11619;50.140;8.518;2023-03-31T00:44:00;8.57;;;2.20;;
22904;SDS011;11619;50.140;8.518;2023-03-31T00:46:41;9.10;;;2.35;;
22904;SDS011;11619;50.140;8.518;2023-03-31T00:49:12;6.55;;;2.30;;
22904;SDS011;11619;50.140;8.518;2023-03-31T00:51:48;8.90;;;2.65;;
22904;SDS011;11619;50.140;8.518;2023-03-31T00:54:16;11.13;;;2.75;;
22904;SDS011;11619;50.140;8.518;2023-03-31T00:56:44;8.98;;;2.97;;
22904;SDS011;11619;50.140;8.518;2023-03-31T00:59:15;9.57;;;2.95;;
22904;SDS011;11619;50.140;8.518;2023-03-31T01:01:43;7.32;;;2.47;;
22904;SDS011;11619;50.140;8.518;2023-03-31T01:04:12;6.57;;;2.33;;
22904;SDS011;11619;50.140;8.518;2023-03-31T01:06:42;13.32;;;2.95;;
22904;SDS011;11619;50.140;8.518;2023-03-31T01:09:12;5.75;;;2.05;;
22904;SDS011;11619;50.140;8.518;2023-03-31T01:11:42;6.32;;;2.33;;
22904;SDS011;11619;50.140;8.518;2023-03-31T01:14:09;5.53;;;1.83;;
22904;SDS011;11619;50.140;8.518;2023-03-31T01:16:36;4.60;;;1.98;;
22904;SDS011;11619;50.140;8.518;2023-03-31T01:19:06;8.18;;;2.13;;
22904;SDS011;11619;50.140;8.518;2023-03-31T01:21:48;11.02;;;3.55;;
22904;SDS011;11619;50.140;8.518;2023-03-31T01:27:07;7.75;;;2.70;;
22904;SDS011;11619;50.140;8.518;2023-03-31T01:29:59;8.50;;;2.67;;
22904;SDS011;11619;50.140;8.518;2023-03-31T01:43:22;7.47;;;3.15;;
22904;SDS011;11619;50.140;8.518;2023-03-31T01:46:15;5.95;;;2.60;;
22904;SDS011;11619;50.140;8.518;2023-03-31T01:54:56;9.32;;;2.67;;
22904;SDS011;11619;50.140;8.518;2023-03-31T01:57:29;11.07;;;3.10;;
22904;SDS011;11619;50.140;8.518;2023-03-31T02:00:17;9.82;;;2.90;;
22904;SDS011;11619;50.140;8.518;2023-03-31T02:02:48;8.43;;;3.22;;
22904;SDS011;11619;50.140;8.518;2023-03-31T02:05:19;8.13;;;3.47;;
22904;SDS011;11619;50.140;8.518;2023-03-31T02:10:17;7.50;;;2.85;;
22904;SDS011;11619;50.140;8.518;2023-03-31T02:12:45;8.30;;;3.80;;
22904;SDS011;11619;50.140;8.518;2023-03-31T02:15:13;10.98;;;3.13;;
22904;SDS011;11619;50.140;8.518;2023-03-31T02:17:44;7.30;;;3.58;;
22904;SDS011;11619;50.140;8.518;2023-03-31T02:20:14;7.88;;;3.00;;
22904;SDS011;11619;50.140;8.518;2023-03-31T02:22:44;7.18;;;3.35;;
22904;SDS011;11619;50.140;8.518;2023-03-31T02:25:14;6.07;;;3.50;;
22904;SDS011;11619;50.140;8.518;2023-03-31T02:27:43;10.43;;;3.55;;
22904;SDS011;11619;50.140;8.518;2023-03-31T02:30:12;11.43;;;4.10;;
22904;SDS011;11619;50.140;8.518;2023-03-31T02:32:40;6.53;;;3.15;;
22904;SDS011;11619;50.140;8.518;2023-03-31T02:35:09;6.40;;;3.47;;
22904;SDS011;11619;50.140;8.518;2023-03-31T02:37:38;11.88;;;3.30;;
22904;SDS011;11619;50.140;8.518;2023-03-31T02:40:06;7.18;;;3.08;;
22904;SDS011;11619;50.140;8.518;2023-03-31T02:42:38;9.90;;;3.58;;
22904;SDS011;11619;50.140;8.518;2023-03-31T02:45:07;8.82;;;3.40;;
22904;SDS011;11619;50.140;8.518;2023-03-31T02:48:02;7.22;;;2.80;;
22904;SDS011;11619;50.140;8.518;2023-03-31T02:50:33;7.97;;;3.03;;
22904;SDS011;11619;50.140;8.518;2023-03-31T02:53:26;7.28;;;3.03;;
22904;SDS011;11619;50.140;8.518;2023-03-31T02:58:50;6.63;;;2.83;;
22904;SDS011;11619;50.140;8.518;2023-03-31T03:04:13;6.32;;;2.53;;
22904;SDS011;11619;50.140;8.518;2023-03-31T03:19:53;9.60;;;3.28;;
22904;SDS011;11619;50.140;8.518;2023-03-31T03:22:21;6.43;;;2.90;;
22904;SDS011;11619;50.140;8.518;2023-03-31T03:24:48;8.05;;;3.00;;
22904;SDS011;11619;50.140;8.518;2023-03-31T03:27:14;10.13;;;2.95;;
22904;SDS011;11619;50.140;8.518;2023-03-31T03:29:41;7.57;;;2.78;;
22904;SDS011;11619;50.140;8.518;2023-03-31T03:32:08;6.50;;;2.95;;
22904;SDS011;11619;50.140;8.518;2023-03-31T03:34:35;9.45;;;2.83;;
22904;SDS011;11619;50.140;8.518;2023-03-31T03:37:02;8.10;;;2.97;;
22904;SDS011;11619;50.140;8.518;2023-03-31T03:39:28;8.73;;;3.40;;
22904;SDS011;11619;50.140;8.518;2023-03-31T03:41:54;7.10;;;3.00;;
22904;SDS011;11619;50.140;8.518;2023-03-31T03:44:21;7.63;;;3.28;;
22904;SDS011;11619;50.140;8.518;2023-03-31T03:46:47;9.65;;;3.70;;
22904;SDS011;11619;50.140;8.518;2023-03-31T03:49:14;8.02;;;3.33;;
22904;SDS011;11619;50.140;8.518;2023-03-31T03:51:40;9.57;;;3.40;;
22904;SDS011;11619;50.140;8.518;2023-03-31T03:54:06;6.60;;;3.22;;
22904;SDS011;11619;50.140;8.518;2023-03-31T03:56:33;3.35;;;2.65;;
22904;SDS011;11619;50.140;8.518;2023-03-31T03:58:59;7.75;;;3.50;;
22904;SDS011;11619;50.140;8.518;2023-03-31T04:01:25;9.57;;;3.80;;
22904;SDS011;11619;50.140;8.518;2023-03-31T04:03:52;7.65;;;3.28;;
22904;SDS011;11619;50.140;8.518;2023-03-31T04:06:18;6.53;;;3.25;;
22904;SDS011;11619;50.140;8.518;2023-03-31T04:08:45;10.32;;;4.32;;
22904;SDS011;11619;50.140;8.518;2023-03-31T04:11:15;6.07;;;3.03;;
22904;SDS011;11619;50.140;8.518;2023-03-31T04:13:44;9.18;;;4.13;;
22904;SDS011;11619;50.140;8.518;2023-03-31T04:16:11;12.98;;;4.70;;
22904;SDS011;11619;50.140;8.518;2023-03-31T04:18:38;8.02;;;4.63;;
22904;SDS011;11619;50.140;8.518;2023-03-31T04:21:11;9.10;;;4.70;;
22904;SDS011;11619;50.140;8.518;2023-03-31T04:23:40;7.47;;;4.60;;
22904;SDS011;11619;50.140;8.518;2023-03-31T04:26:13;10.20;;;5.38;;
22904;SDS011;11619;50.140;8.518;2023-03-31T04:28:41;8.00;;;5.05;;
22904;SDS011;11619;50.140;8.518;2023-03-31T04:31:12;9.65;;;4.93;;
22904;SDS011;11619;50.140;8.518;2023-03-31T04:33:51;9.65;;;4.80;;
22904;SDS011;11619;50.140;8.518;2023-03-31T04:36:20;10.25;;;4.85;;
22904;SDS011;11619;50.140;8.518;2023-03-31T04:38:47;10.45;;;5.28;;
22904;SDS011;11619;50.140;8.518;2023-03-31T04:41:21;9.18;;;5.22;;
22904;SDS011;11619;50.140;8.518;2023-03-31T04:43:48;8.55;;;4.88;;
22904;SDS011;11619;50.140;8.518;2023-03-31T04:46:15;7.10;;;4.75;;
22904;SDS011;11619;50.140;8.518;2023-03-31T04:48:42;7.85;;;4.55;;
22904;SDS011;11619;50.140;8.518;2023-03-31T04:51:08;5.65;;;3.60;;
22904;SDS011;11619;50.140;8.518;2023-03-31T04:53:35;11.50;;;4.63;;
22904;SDS011;11619;50.140;8.518;2023-03-31T04:56:01;9.85;;;5.05;;
22904;SDS011;11619;50.140;8.518;2023-03-31T04:58:29;7.30;;;5.05;;
22904;SDS011;11619;50.140;8.518;2023-03-31T05:00:55;8.15;;;5.10;;
22904;SDS011;11619;50.140;8.518;2023-03-31T05:03:22;10.00;;;5.75;;
22904;SDS011;11619;50.140;8.518;2023-03-31T05:05:48;10.82;;;5.78;;
22904;SDS011;11619;50.140;8.518;2023-03-31T05:08:15;12.32;;;5.28;;
22904;SDS011;11619;50.140;8.518;2023-03-31T05:10:41;13.73;;;5.90;;
22904;SDS011;11619;50.140;8.518;2023-03-31T05:13:08;12.55;;;6.70;;
22904;SDS011;11619;50.140;8.518;2023-03-31T05:15:38;13.80;;;6.78;;
22904;SDS011;11619;50.140;8.518;2023-03-31T05:18:05;11.20;;;6.82;;
22904;SDS011;11619;50.140;8.518;2023-03-31T05:20:33;9.88;;;6.13;;
22904;SDS011;11619;50.140;8.518;2023-03-31T05:22:59;9.85;;;6.20;;
22904;SDS011;11619;50.140;8.518;2023-03-31T05:25:26;11.38;;;7.18;;
22904;SDS011;11619;50.140;8.518;2023-03-31T05:27:57;13.38;;;6.55;;
22904;SDS011;11619;50.140;8.518;2023-03-31T05:30:25;8.93;;;4.45;;
22904;SDS011;11619;50.140;8.518;2023-03-31T05:32:52;9.18;;;4.18;;
22904;SDS011;11619;50.140;8.518;2023-03-31T05:35:18;10.15;;;4.80;;
22904;SDS011;11619;50.140;8.518;2023-03-31T05:37:45;12.90;;;4.78;;
22904;SDS011;11619;50.140;8.518;2023-03-31T05:40:11;13.25;;;4.60;;
22904;SDS011;11619;50.140;8.518;2023-03-31T05:42:38;10.65;;;4.22;;
22904;SDS011;11619;50.140;8.518;2023-03-31T05:45:04;12.30;;;4.53;;
22904;SDS011;11619;50.140;8.518;2023-03-31T05:47:34;10.10;;;4.05;;
22904;SDS011;11619;50.140;8.518;2023-03-31T05:50:00;11.07;;;3.67;;
22904;SDS011;11619;50.140;8.518;2023-03-31T05:52:29;12.77;;;3.95;;
22904;SDS011;11619;50.140;8.518;2023-03-31T05:54:57;9.73;;;3.78;;
22904;SDS011;11619;50.140;8.518;2023-03-31T05:57:24;11.38;;;3.50;;
22904;SDS011;11619;50.140;8.518;2023-03-31T05:59:51;9.30;;;3.25;;
22904;SDS011;11619;50.140;8.518;2023-03-31T06:02:17;6.38;;;3.42;;
22904;SDS011;11619;50.140;8.518;2023-03-31T06:04:44;7.95;;;3.42;;
22904;SDS011;11619;50.140;8.518;2023-03-31T06:07:10;7.93;;;3.25;;
22904;SDS011;11619;50.140;8.518;2023-03-31T06:09:36;12.00;;;3.67;;
22904;SDS011;11619;50.140;8.518;2023-03-31T06:12:03;8.25;;;3.60;;
22904;SDS011;11619;50.140;8.518;2023-03-31T06:14:30;6.30;;;3.20;;
22904;SDS011;11619;50.140;8.518;2023-03-31T06:16:56;16.67;;;5.85;;
22904;SDS011;11619;50.140;8.518;2023-03-31T06:19:23;16.10;;;5.25;;
22904;SDS011;11619;50.140;8.518;2023-03-31T06:21:49;11.48;;;4.57;;
22904;SDS011;11619;50.140;8.518;2023-03-31T06:24:16;10.48;;;3.70;;
22904;SDS011;11619;50.140;8.518;2023-03-31T06:26:42;9.65;;;3.65;;
22904;SDS011;11619;50.140;8.518;2023-03-31T06:29:09;9.65;;;3.78;;
22904;SDS011;11619;50.140;8.518;2023-03-31T06:31:35;14.98;;;4.43;;
22904;SDS011;11619;50.140;8.518;2023-03-31T06:34:01;9.98;;;3.75;;
22904;SDS011;11619;50.140;8.518;2023-03-31T06:36:28;9.60;;;3.97;;
22904;SDS011;11619;50.140;8.518;2023-03-31T06:38:54;9.57;;;3.65;;
22904;SDS011;11619;50.140;8.518;2023-03-31T06:41:21;8.32;;;3.72;;
22904;SDS011;11619;50.140;8.518;2023-03-31T06:43:48;8.93;;;3.40;;
22904;SDS011;11619;50.140;8.518;2023-03-31T06:46:14;11.48;;;3.65;;
22904;SDS011;11619;50.140;8.518;2023-03-31T06:48:41;5.88;;;2.67;;
22904;SDS011;11619;50.140;8.518;2023-03-31T06:51:07;10.32;;;3.33;;
22904;SDS011;11619;50.140;8.518;2023-03-31T06:53:34;10.02;;;3.72;;
22904;SDS011;11619;50.140;8.518;2023-03-31T06:56:00;9.98;;;3.47;;
22904;SDS011;11619;50.140;8.518;2023-03-31T06:58:27;10.05;;;3.85;;
22904;SDS011;11619;50.140;8.518;2023-03-31T07:00:56;10.15;;;3.30;;
22904;SDS011;11619;50.140;8.518;2023-03-31T07:03:23;12.90;;;3.85;;
22904;SDS011;11619;50.140;8.518;2023-03-31T07:05:51;17.63;;;4.00;;
22904;SDS011;11619;50.140;8.518;2023-03-31T07:08:18;7.22;;;3.20;;
22904;SDS011;11619;50.140;8.518;2023-03-31T07:10:45;7.93;;;3.58;;
22904;SDS011;11619;50.140;8.518;2023-03-31T07:13:14;6.68;;;3.60;;
22904;SDS011;11619;50.140;8.518;2023-03-31T07:15:41;11.40;;;4.43;;
22904;SDS011;11619;50.140;8.518;2023-03-31T07:18:08;13.48;;;3.65;;
22904;SDS011;11619;50.140;8.518;2023-03-31T07:20:34;9.25;;;3.72;;
22904;SDS011;11619;50.140;8.518;2023-03-31T07:23:02;6.57;;;3.70;;
22904;SDS011;11619;50.140;8.518;2023-03-31T07:25:29;8.35;;;3.90;;
22904;SDS011;11619;50.140;8.518;2023-03-31T07:27:56;8.13;;;3.75;;
22904;SDS011;11619;50.140;8.518;2023-03-31T07:30:22;10.90;;;4.38;;
22904;SDS011;11619;50.140;8.518;2023-03-31T07:32:50;9.85;;;4.22;;
22904;SDS011;11619;50.140;8.518;2023-03-31T07:35:17;9.93;;;4.75;;
22904;SDS011;11619;50.140;8.518;2023-03-31T07:37:45;11.52;;;4.68;;
22904;SDS011;11619;50.140;8.518;2023-03-31T07:40:14;8.25;;;3.85;;
22904;SDS011;11619;50.140;8.518;2023-03-31T07:42:42;8.50;;;4.15;;
22904;SDS011;11619;50.140;8.518;2023-03-31T07:45:12;9.43;;;4.35;;
22904;SDS011;11619;50.140;8.518;2023-03-31T07:47:38;6.53;;;3.70;;
22904;SDS011;11619;50.140;8.518;2023-03-31T07:50:05;4.75;;;3.42;;
22904;SDS011;11619;50.140;8.518;2023-03-31T07:52:32;6.10;;;4.43;;
22904;SDS011;11619;50.140;8.518;2023-03-31T07:54:59;9.38;;;4.50;;
22904;SDS011;11619;50.140;8.518;2023-03-31T07:57:25;9.38;;;4.45;;
22904;SDS011;11619;50.140;8.518;2023-03-31T07:59:52;10.40;;;5.03;;
22904;SDS011;11619;50.140;8.518;2023-03-31T08:02:18;11.57;;;4.10;;
22904;SDS011;11619;50.140;8.518;2023-03-31T08:04:45;8.13;;;4.28;;
22904;SDS011;11619;50.140;8.518;2023-03-31T08:07:12;9.35;;;3.65;;
22904;SDS011;11619;50.140;8.518;2023-03-31T08:09:40;7.80;;;3.80;;
22904;SDS011;11619;50.140;8.518;2023-03-31T08:12:08;7.45;;;4.28;;
22904;SDS011;11619;50.140;8.518;2023-03-31T08:14:34;8.20;;;3.90;;
22904;SDS011;11619;50.140;8.518;2023-03-31T08:17:06;10.07;;;4.55;;
22904;SDS011;11619;50.140;8.518;2023-03-31T08:19:33;7.05;;;4.60;;
22904;SDS011;11619;50.140;8.518;2023-03-31T08:22:00;8.85;;;4.32;;
22904;SDS011;11619;50.140;8.518;2023-03-31T08:24:26;13.18;;;5.45;;
22904;SDS011;11619;50.140;8.518;2023-03-31T08:26:52;6.90;;;4.65;;
22904;SDS011;11619;50.140;8.518;2023-03-31T08:29:19;10.70;;;4.30;;
22904;SDS011;11619;50.140;8.518;2023-03-31T08:31:45;8.38;;;4.63;;
22904;SDS011;11619;50.140;8.518;2023-03-31T08:34:12;5.97;;;3.13;;
22904;SDS011;11619;50.140;8.518;2023-03-31T08:36:38;8.02;;;3.63;;
22904;SDS011;11619;50.140;8.518;2023-03-31T08:39:06;8.30;;;3.75;;
22904;SDS011;11619;50.140;8.518;2023-03-31T08:41:35;7.80;;;3.70;;
22904;SDS011;11619;50.140;8.518;2023-03-31T08:47:09;5.72;;;3.33;;
22904;SDS011;11619;50.140;8.518;2023-03-31T08:49:43;8.98;;;3.85;;
22904;SDS011;11619;50.140;8.518;2023-03-31T08:52:13;5.28;;;2.60;;
22904;SDS011;11619;50.140;8.518;2023-03-31T08:54:42;5.60;;;2.90;;
22904;SDS011;11619;50.140;8.518;2023-03-31T08:57:14;5.20;;;2.83;;
22904;SDS011;11619;50.140;8.518;2023-03-31T08:59:42;6.05;;;3.40;;
22904;SDS011;11619;50.140;8.518;2023-03-31T09:05:09;7.25;;;2.65;;
22904;SDS011;11619;50.140;8.518;2023-03-31T09:07:50;5.10;;;2.70;;
22904;SDS011;11619;50.140;8.518;2023-03-31T09:10:37;6.90;;;2.78;;
22904;SDS011;11619;50.140;8.518;2023-03-31T09:13:26;5.70;;;2.90;;
22904;SDS011;11619;50.140;8.518;2023-03-31T09:16:22;5.72;;;2.65;;
22904;SDS011;11619;50.140;8.518;2023-03-31T09:19:01;5.80;;;2.15;;
22904;SDS011;11619;50.140;8.518;2023-03-31T09:21:31;5.60;;;2.25;;
22904;SDS011;11619;50.140;8.518;2023-03-31T09:24:13;6.95;;;3.13;;
22904;SDS011;11619;50.140;8.518;2023-03-31T09:35:01;5.43;;;2.55;;
22904;SDS011;11619;50.140;8.518;2023-03-31T09:37:44;4.40;;;2.60;;
22904;SDS011;11619;50.140;8.518;2023-03-31T09:40:14;8.77;;;2.50;;
22904;SDS011;11619;50.140;8.518;2023-03-31T09:42:42;7.65;;;2.83;;
22904;SDS011;11619;50.140;8.518;2023-03-31T09:45:15;4.88;;;2.40;;
22904;SDS011;11619;50.140;8.518;2023-03-31T09:47:43;7.38;;;2.30;;
22904;SDS011;11619;50.140;8.518;2023-03-31T09:50:11;4.22;;;2.70;;
22904;SDS011;11619;50.140;8.518;2023-03-31T09:52:57;7.45;;;2.72;;
22904;SDS011;11619;50.140;8.518;2023-03-31T09:58:06;7.75;;;2.78;;
22904;SDS011;11619;50.140;8.518;2023-03-31T10:00:33;5.15;;;2.70;;
22904;SDS011;11619;50.140;8.518;2023-03-31T10:03:03;6.68;;;2.83;;
22904;SDS011;11619;50.140;8.518;2023-03-31T10:05:37;4.82;;;2.95;;
22904;SDS011;11619;50.140;8.518;2023-03-31T10:10:50;9.73;;;3.40;;
22904;SDS011;11619;50.140;8.518;2023-03-31T10:13:19;8.48;;;2.90;;
22904;SDS011;11619;50.140;8.518;2023-03-31T10:15:52;5.05;;;2.55;;
22904;SDS011;11619;50.140;8.518;2023-03-31T10:18:19;8.93;;;3.63;;
22904;SDS011;11619;50.140;8.518;2023-03-31T10:20:50;7.97;;;3.45;;
22904;SDS011;11619;50.140;8.518;2023-03-31T10:25:47;11.82;;;3.22;;
22904;SDS011;11619;50.140;8.518;2023-03-31T10:28:17;13.20;;;3.15;;
22904;SDS011;11619;50.140;8.518;2023-03-31T10:30:51;7.43;;;2.65;;
22904;SDS011;11619;50.140;8.518;2023-03-31T10:33:24;7.22;;;1.90;;
22904;SDS011;11619;50.140;8.518;2023-03-31T10:35:53;7.32;;;2.22;;
22904;SDS011;11619;50.140;8.518;2023-03-31T10:38:23;9.35;;;2.50;;
22904;SDS011;11619;50.140;8.518;2023-03-31T10:40:53;6.40;;;2.05;;
22904;SDS011;11619;50.140;8.518;2023-03-31T10:46:04;7.85;;;2.72;;
22904;SDS011;11619;50.140;8.518;2023-03-31T10:48:31;6.07;;;2.13;;
22904;SDS011;11619;50.140;8.518;2023-03-31T10:51:20;6.63;;;2.38;;
22904;SDS011;11619;50.140;8.518;2023-03-31T10:53:47;5.95;;;2.33;;
22904;SDS011;11619;50.140;8.518;2023-03-31T10:56:21;11.85;;;2.83;;
22904;SDS011;11619;50.140;8.518;2023-03-31T11:07:44;7.18;;;2.00;;
22904;SDS011;11619;50.140;8.518;2023-03-31T11:13:14;8.93;;;2.85;;
22904;SDS011;11619;50.140;8.518;2023-03-31T11:15:54;9.63;;;2.65;;
22904;SDS011;11619;50.140;8.518;2023-03-31T11:35:05;7.43;;;2.30;;
22904;SDS011;11619;50.140;8.518;2023-03-31T11:40:31;6.63;;;2.17;;
22904;SDS011;11619;50.140;8.518;2023-03-31T11:43:06;5.88;;;1.92;;
22904;SDS011;11619;50.140;8.518;2023-03-31T11:45:40;4.93;;;2.13;;
22904;SDS011;11619;50.140;8.518;2023-03-31T11:48:20;12.43;;;2.58;;
22904;SDS011;11619;50.140;8.518;2023-03-31T11:50:53;7.60;;;2.00;;
22904;SDS011;11619;50.140;8.518;2023-03-31T11:53:23;9.82;;;2.25;;
22904;SDS011;11619;50.140;8.518;2023-03-31T11:55:52;10.02;;;2.70;;
22904;SDS011;11619;50.140;8.518;2023-03-31T11:58:20;5.25;;;2.25;;
22904;SDS011;11619;50.140;8.518;2023-03-31T12:01:06;10.43;;;2.50;;
22904;SDS011;11619;50.140;8.518;2023-03-31T12:06:28;10.50;;;2.95;;
22904;SDS011;11619;50.140;8.518;2023-03-31T12:11:51;9.10;;;2.17;;
22904;SDS011;11619;50.140;8.518;2023-03-31T12:14:32;9.00;;;2.50;;
22904;SDS011;11619;50.140;8.518;2023-03-31T12:17:03;8.85;;;2.30;;
22904;SDS011;11619;50.140;8.518;2023-03-31T12:22:12;10.40;;;2.75;;
22904;SDS011;11619;50.140;8.518;2023-03-31T12:24:42;6.25;;;1.92;;
22904;SDS011;11619;50.140;8.518;2023-03-31T12:27:10;3.03;;;1.40;;
22904;SDS011;11619;50.140;8.518;2023-03-31T12:30:14;4.57;;;1.48;;
22904;SDS011;11619;50.140;8.518;2023-03-31T12:32:40;3.95;;;1.65;;
22904;SDS011;11619;50.140;8.518;2023-03-31T12:35:44;3.50;;;1.38;;
22904;SDS011;11619;50.140;8.518;2023-03-31T12:38:25;7.07;;;1.90;;
22904;SDS011;11619;50.140;8.518;2023-03-31T12:46:46;6.53;;;1.77;;
22904;SDS011;11619;50.140;8.518;2023-03-31T12:52:16;5.82;;;1.85;;
22904;SDS011;11619;50.140;8.518;2023-03-31T12:57:50;6.90;;;2.00;;
22904;SDS011;11619;50.140;8.518;2023-03-31T13:00:18;8.07;;;2.15;;
22904;SDS011;11619;50.140;8.518;2023-03-31T13:02:50;8.45;;;2.17;;
22904;SDS011;11619;50.140;8.518;2023-03-31T13:08:05;6.15;;;1.58;;
22904;SDS011;11619;50.140;8.518;2023-03-31T13:10:33;6.78;;;2.17;;
22904;SDS011;11619;50.140;8.518;2023-03-31T13:13:24;7.25;;;2.15;;
22904;SDS011;11619;50.140;8.518;2023-03-31T13:15:51;7.93;;;2.15;;
22904;SDS011;11619;50.140;8.518;2023-03-31T13:18:20;7.32;;;2.28;;
22904;SDS011;11619;50.140;8.518;2023-03-31T13:20:57;8.05;;;2.25;;
22904;SDS011;11619;50.140;8.518;2023-03-31T13:23:24;8.60;;;1.83;;
22904;SDS011;11619;50.140;8.518;2023-03-31T13:25:51;8.43;;;2.28;;
22904;SDS011;11619;50.140;8.518;2023-03-31T13:30:49;6.60;;;2.17;;
22904;SDS011;11619;50.140;8.518;2023-03-31T13:33:26;5.65;;;1.60;;
22904;SDS011;11619;50.140;8.518;2023-03-31T13:36:01;6.35;;;2.13;;
22904;SDS011;11619;50.140;8.518;2023-03-31T13:38:51;6.35;;;1.70;;
22904;SDS011;11619;50.140;8.518;2023-03-31T13:41:38;6.72;;;1.85;;
22904;SDS011;11619;50.140;8.518;2023-03-31T13:49:51;4.50;;;1.35;;
22904;SDS011;11619;50.140;8.518;2023-03-31T13:52:41;2.20;;;1.00;;
22904;SDS011;11619;50.140;8.518;2023-03-31T13:55:19;2.42;;;0.90;;
22904;SDS011;11619;50.140;8.518;2023-03-31T14:06:54;1.75;;;0.82;;
22904;SDS011;11619;50.140;8.518;2023-03-31T14:09:23;2.60;;;1.05;;
22904;SDS011;11619;50.140;8.518;2023-03-31T14:11:58;3.10;;;1.13;;
22904;SDS011;11619;50.140;8.518;2023-03-31T14:14:25;2.53;;;0.93;;
22904;SDS011;11619;50.140;8.518;2023-03-31T14:16:54;3.65;;;0.98;;
22904;SDS011;11619;50.140;8.518;2023-03-31T14:25:43;3.30;;;1.20;;
22904;SDS011;11619;50.140;8.518;2023-03-31T14:28:23;3.78;;;1.20;;
22904;SDS011;11619;50.140;8.518;2023-03-31T14:33:52;4.70;;;1.65;;
22904;SDS011;11619;50.140;8.518;2023-03-31T14:36:48;4.68;;;1.80;;
22904;SDS011;11619;50.140;8.518;2023-03-31T14:39:26;4.03;;;1.48;;
22904;SDS011;11619;50.140;8.518;2023-03-31T14:42:00;6.75;;;1.48;;
22904;SDS011;11619;50.140;8.518;2023-03-31T14:44:29;3.97;;;1.55;;
22904;SDS011;11619;50.140;8.518;2023-03-31T14:46:56;5.93;;;1.48;;
22904;SDS011;11619;50.140;8.518;2023-03-31T14:49:25;4.55;;;1.42;;
22904;SDS011;11619;50.140;8.518;2023-03-31T14:51:53;6.28;;;2.08;;
22904;SDS011;11619;50.140;8.518;2023-03-31T14:54:23;4.80;;;1.38;;
22904;SDS011;11619;50.140;8.518;2023-03-31T14:56:51;3.95;;;1.50;;
22904;SDS011;11619;50.140;8.518;2023-03-31T14:59:26;4.63;;;1.48;;
22904;SDS011;11619;50.140;8.518;2023-03-31T15:01:55;7.55;;;2.17;;
22904;SDS011;11619;50.140;8.518;2023-03-31T15:04:24;11.38;;;2.50;;
22904;SDS011;11619;50.140;8.518;2023-03-31T15:07:07;6.32;;;2.33;;
22904;SDS011;11619;50.140;8.518;2023-03-31T15:09:33;5.35;;;1.73;;
22904;SDS011;11619;50.140;8.518;2023-03-31T15:12:02;5.50;;;1.48;;
22904;SDS011;11619;50.140;8.518;2023-03-31T15:14:30;2.97;;;1.38;;
22904;SDS011;11619;50.140;8.518;2023-03-31T15:16:59;7.03;;;1.75;;
22904;SDS011;11619;50.140;8.518;2023-03-31T15:19:28;5.15;;;1.45;;
22904;SDS011;11619;50.140;8.518;2023-03-31T15:22:00;6.30;;;1.40;;
22904;SDS011;11619;50.140;8.518;2023-03-31T15:24:29;3.75;;;1.10;;
22904;SDS011;11619;50.140;8.518;2023-03-31T15:26:56;3.38;;;1.33;;
22904;SDS011;11619;50.140;8.518;2023-03-31T15:32:13;2.45;;;1.10;;
22904;SDS011;11619;50.140;8.518;2023-03-31T15:34:42;3.97;;;1.10;;
22904;SDS011;11619;50.140;8.518;2023-03-31T15:37:11;4.38;;;1.10;;
22904;SDS011;11619;50.140;8.518;2023-03-31T15:39:37;4.28;;;1.25;;
22904;SDS011;11619;50.140;8.518;2023-03-31T15:42:04;5.32;;;1.50;;
22904;SDS011;11619;50.140;8.518;2023-03-31T15:44:36;3.60;;;1.20;;
22904;SDS011;11619;50.140;8.518;2023-03-31T15:47:10;3.67;;;1.40;;
22904;SDS011;11619;50.140;8.518;2023-03-31T15:49:47;4.00;;;1.65;;
22904;SDS011;11619;50.140;8.518;2023-03-31T15:52:23;3.53;;;1.25;;
22904;SDS011;11619;50.140;8.518;2023-03-31T15:54:54;4.50;;;1.55;;
22904;SDS011;11619;50.140;8.518;2023-03-31T15:57:22;5.25;;;1.25;;
22904;SDS011;11619;50.140;8.518;2023-03-31T15:59:57;5.88;;;1.50;;
22904;SDS011;11619;50.140;8.518;2023-03-31T16:02:39;5.10;;;1.65;;
22904;SDS011;11619;50.140;8.518;2023-03-31T16:05:21;5.30;;;1.52;;
22904;SDS011;11619;50.140;8.518;2023-03-31T16:08:02;5.23;;;1.23;;
22904;SDS011;11619;50.140;8.518;2023-03-31T16:10:29;2.13;;;1.55;;
22904;SDS011;11619;50.140;8.518;2023-03-31T16:12:57;5.82;;;1.90;;
22904;SDS011;11619;50.140;8.518;2023-03-31T16:15:35;4.30;;;1.40;;
22904;SDS011;11619;50.140;8.518;2023-03-31T16:18:07;4.68;;;1.45;;
22904;SDS011;11619;50.140;8.518;2023-03-31T16:20:39;4.78;;;1.45;;
22904;SDS011;11619;50.140;8.518;2023-03-31T16:23:20;2.58;;;1.33;;
22904;SDS011;11619;50.140;8.518;2023-03-31T16:25:51;4.53;;;1.35;;
22904;SDS011;11619;50.140;8.518;2023-03-31T16:28:22;4.60;;;1.52;;
22904;SDS011;11619;50.140;8.518;2023-03-31T16:30:51;5.72;;;1.70;;
22904;SDS011;11619;50.140;8.518;2023-03-31T16:33:19;4.57;;;1.50;;
22904;SDS011;11619;50.140;8.518;2023-03-31T16:35:47;5.43;;;1.92;;
22904;SDS011;11619;50.140;8.518;2023-03-31T16:38:16;6.03;;;1.83;;
22904;SDS011;11619;50.140;8.518;2023-03-31T16:40:44;6.03;;;1.65;;
22904;SDS011;11619;50.140;8.518;2023-03-31T16:45:44;3.17;;;1.50;;
22904;SDS011;11619;50.140;8.518;2023-03-31T16:50:46;6.53;;;2.53;;
22904;SDS011;11619;50.140;8.518;2023-03-31T16:53:15;4.45;;;1.85;;
22904;SDS011;11619;50.140;8.518;2023-03-31T16:55:43;5.80;;;2.08;;
22904;SDS011;11619;50.140;8.518;2023-03-31T16:58:10;11.57;;;3.05;;
22904;SDS011;11619;50.140;8.518;2023-03-31T17:00:37;6.95;;;2.13;;
22904;SDS011;11619;50.140;8.518;2023-03-31T17:03:06;6.47;;;1.88;;
22904;SDS011;11619;50.140;8.518;2023-03-31T17:05:40;6.40;;;2.25;;
22904;SDS011;11619;50.140;8.518;2023-03-31T17:10:35;8.77;;;2.63;;
22904;SDS011;11619;50.140;8.518;2023-03-31T17:13:02;9.50;;;2.50;;
22904;SDS011;11619;50.140;8.518;2023-03-31T17:15:29;7.63;;;2.58;;
22904;SDS011;11619;50.140;8.518;2023-03-31T17:17:56;7.53;;;2.38;;
22904;SDS011;11619;50.140;8.518;2023-03-31T17:20:24;8.25;;;2.15;;
22904;SDS011;11619;50.140;8.518;2023-03-31T17:22:51;9.50;;;2.20;;
22904;SDS011;11619;50.140;8.518;2023-03-31T17:25:19;8.23;;;2.00;;
22904;SDS011;11619;50.140;8.518;2023-03-31T17:27:46;6.15;;;1.85;;
22904;SDS011;11619;50.140;8.518;2023-03-31T17:30:12;6.88;;;1.80;;
22904;SDS011;11619;50.140;8.518;2023-03-31T17:32:39;6.93;;;1.98;;
22904;SDS011;11619;50.140;8.518;2023-03-31T17:35:06;6.32;;;2.17;;
22904;SDS011;11619;50.140;8.518;2023-03-31T17:37:33;6.65;;;1.92;;
22904;SDS011;11619;50.140;8.518;2023-03-31T17:39:59;7.03;;;1.80;;
22904;SDS011;11619;50.140;8.518;2023-03-31T17:42:26;8.77;;;2.65;;